sensor_id;sensor_type;location;lat;lon;timestamp;P1;durP1;ratioP1;P2;durP2;ratioP2
2972;SDS011;1496;51.404;7.232;2023-08-20T00:00:29;18.80;;;10.87;;
2972;SDS011;1496;51.404;7.232;2023-08-20T00:02:58;14.97;;;10.97;;
2972;SDS011;1496;51.404;7.232;2023-08-20T00:05:28;14.50;;;10.87;;
2972;SDS011;1496;51.404;7.232;2023-08-20T00:07:54;16.10;;;10.50;;
2972;SDS011;1496;51.404;7.232;2023-08-20T00:10:20;14.87;;;10.27;;
2972;SDS011;1496;51.404;7.232;2023-08-20T00:12:45;13.57;;;9.23;;
2972;SDS011;1496;51.404;7.232;2023-08-20T00:15:11;12.13;;;9.73;;
2972;SDS011;1496;51.404;7.232;2023-08-20T00:17:38;17.53;;;9.80;;
2972;SDS011;1496;51.404;7.232;2023-08-20T00:20:05;13.20;;;10.73;;
2972;SDS011;1496;51.404;7.232;2023-08-20T00:22:35;17.83;;;11.27;;
2972;SDS011;1496;51.404;7.232;2023-08-20T00:25:01;14.87;;;9.90;;
2972;SDS011;1496;51.404;7.232;2023-08-20T00:27:29;20.40;;;10.70;;
2972;SDS011;1496;51.404;7.232;2023-08-20T00:29:55;15.27;;;10.80;;
2972;SDS011;1496;51.404;7.232;2023-08-20T00:32:20;15.10;;;10.70;;
2972;SDS011;1496;51.404;7.232;2023-08-20T00:34:46;16.97;;;11.00;;
2972;SDS011;1496;51.404;7.232;2023-08-20T00:37:15;18.70;;;12.27;;
2972;SDS011;1496;51.404;7.232;2023-08-20T00:39:41;17.67;;;12.13;;
2972;SDS011;1496;51.404;7.232;2023-08-20T00:42:07;16.17;;;11.10;;
2972;SDS011;1496;51.404;7.232;2023-08-20T00:44:33;15.73;;;11.13;;
2972;SDS011;1496;51.404;7.232;2023-08-20T00:47:02;17.13;;;10.90;;
2972;SDS011;1496;51.404;7.232;2023-08-20T00:49:30;20.40;;;11.93;;
2972;SDS011;1496;51.404;7.232;2023-08-20T00:52:00;16.43;;;12.27;;
2972;SDS011;1496;51.404;7.232;2023-08-20T00:54:26;16.40;;;10.60;;
2972;SDS011;1496;51.404;7.232;2023-08-20T00:56:54;15.17;;;9.00;;
2972;SDS011;1496;51.404;7.232;2023-08-20T00:59:19;16.17;;;9.70;;
2972;SDS011;1496;51.404;7.232;2023-08-20T01:01:45;12.70;;;9.20;;
2972;SDS011;1496;51.404;7.232;2023-08-20T01:04:11;13.00;;;8.70;;
2972;SDS011;1496;51.404;7.232;2023-08-20T01:07:24;18.70;;;8.60;;
2972;SDS011;1496;51.404;7.232;2023-08-20T01:12:26;14.07;;;7.83;;
2972;SDS011;1496;51.404;7.232;2023-08-20T01:14:51;18.37;;;8.37;;
2972;SDS011;1496;51.404;7.232;2023-08-20T01:17:17;12.00;;;8.67;;
2972;SDS011;1496;51.404;7.232;2023-08-20T01:19:43;11.20;;;7.80;;
2972;SDS011;1496;51.404;7.232;2023-08-20T01:30:34;13.00;;;9.40;;
2972;SDS011;1496;51.404;7.232;2023-08-20T01:33:00;10.50;;;8.20;;
2972;SDS011;1496;51.404;7.232;2023-08-20T01:35:28;15.57;;;9.90;;
2972;SDS011;1496;51.404;7.232;2023-08-20T01:38:01;12.87;;;10.20;;
2972;SDS011;1496;51.404;7.232;2023-08-20T01:40:28;13.10;;;10.30;;
2972;SDS011;1496;51.404;7.232;2023-08-20T01:42:54;11.87;;;10.47;;
2972;SDS011;1496;51.404;7.232;2023-08-20T01:45:20;16.30;;;11.17;;
2972;SDS011;1496;51.404;7.232;2023-08-20T01:47:47;15.83;;;10.40;;
2972;SDS011;1496;51.404;7.232;2023-08-20T01:50:13;14.93;;;11.57;;
2972;SDS011;1496;51.404;7.232;2023-08-20T01:52:39;15.77;;;11.50;;
2972;SDS011;1496;51.404;7.232;2023-08-20T01:55:05;15.53;;;12.67;;
2972;SDS011;1496;51.404;7.232;2023-08-20T01:57:32;14.53;;;12.70;;
2972;SDS011;1496;51.404;7.232;2023-08-20T01:59:58;14.70;;;12.37;;
2972;SDS011;1496;51.404;7.232;2023-08-20T02:02:24;17.60;;;11.00;;
2972;SDS011;1496;51.404;7.232;2023-08-20T02:04:50;18.07;;;12.97;;
2972;SDS011;1496;51.404;7.232;2023-08-20T02:07:16;14.87;;;11.90;;
2972;SDS011;1496;51.404;7.232;2023-08-20T02:09:41;16.47;;;12.90;;
2972;SDS011;1496;51.404;7.232;2023-08-20T02:12:07;18.60;;;12.10;;
2972;SDS011;1496;51.404;7.232;2023-08-20T02:14:34;16.60;;;11.20;;
2972;SDS011;1496;51.404;7.232;2023-08-20T02:17:03;18.50;;;11.73;;
2972;SDS011;1496;51.404;7.232;2023-08-20T02:19:29;15.27;;;12.90;;
2972;SDS011;1496;51.404;7.232;2023-08-20T02:21:55;17.83;;;12.97;;
2972;SDS011;1496;51.404;7.232;2023-08-20T02:24:21;16.40;;;12.63;;
2972;SDS011;1496;51.404;7.232;2023-08-20T02:26:46;17.80;;;11.90;;
2972;SDS011;1496;51.404;7.232;2023-08-20T02:29:15;13.97;;;11.87;;
2972;SDS011;1496;51.404;7.232;2023-08-20T02:31:41;18.67;;;11.73;;
2972;SDS011;1496;51.404;7.232;2023-08-20T02:34:07;17.87;;;12.30;;
2972;SDS011;1496;51.404;7.232;2023-08-20T02:36:33;12.70;;;11.13;;
2972;SDS011;1496;51.404;7.232;2023-08-20T02:38:58;17.20;;;12.07;;
2972;SDS011;1496;51.404;7.232;2023-08-20T02:41:24;16.33;;;12.70;;
2972;SDS011;1496;51.404;7.232;2023-08-20T02:43:50;15.50;;;12.93;;
2972;SDS011;1496;51.404;7.232;2023-08-20T02:46:15;16.73;;;12.00;;
2972;SDS011;1496;51.404;7.232;2023-08-20T02:48:41;17.47;;;12.70;;
2972;SDS011;1496;51.404;7.232;2023-08-20T02:51:07;15.87;;;12.77;;
2972;SDS011;1496;51.404;7.232;2023-08-20T02:53:32;15.03;;;12.90;;
2972;SDS011;1496;51.404;7.232;2023-08-20T02:55:58;17.10;;;11.67;;
2972;SDS011;1496;51.404;7.232;2023-08-20T02:58:24;13.63;;;11.83;;
2972;SDS011;1496;51.404;7.232;2023-08-20T03:00:50;14.33;;;10.63;;
2972;SDS011;1496;51.404;7.232;2023-08-20T03:03:15;12.10;;;10.70;;
2972;SDS011;1496;51.404;7.232;2023-08-20T03:05:42;14.37;;;10.87;;
2972;SDS011;1496;51.404;7.232;2023-08-20T03:08:08;20.20;;;11.97;;
2972;SDS011;1496;51.404;7.232;2023-08-20T03:10:35;14.27;;;10.93;;
2972;SDS011;1496;51.404;7.232;2023-08-20T03:13:01;14.47;;;10.20;;
2972;SDS011;1496;51.404;7.232;2023-08-20T03:15:30;16.40;;;11.43;;
2972;SDS011;1496;51.404;7.232;2023-08-20T03:17:56;20.63;;;11.40;;
2972;SDS011;1496;51.404;7.232;2023-08-20T03:20:21;20.17;;;11.97;;
2972;SDS011;1496;51.404;7.232;2023-08-20T03:22:47;16.73;;;10.97;;
2972;SDS011;1496;51.404;7.232;2023-08-20T03:25:13;24.67;;;13.33;;
2972;SDS011;1496;51.404;7.232;2023-08-20T03:27:39;14.00;;;10.37;;
2972;SDS011;1496;51.404;7.232;2023-08-20T03:30:04;14.70;;;11.73;;
2972;SDS011;1496;51.404;7.232;2023-08-20T03:32:31;18.57;;;12.40;;
2972;SDS011;1496;51.404;7.232;2023-08-20T03:34:57;14.50;;;12.50;;
2972;SDS011;1496;51.404;7.232;2023-08-20T03:37:24;13.80;;;11.50;;
2972;SDS011;1496;51.404;7.232;2023-08-20T03:39:50;16.50;;;11.50;;
2972;SDS011;1496;51.404;7.232;2023-08-20T03:42:16;18.03;;;12.03;;
2972;SDS011;1496;51.404;7.232;2023-08-20T03:44:42;15.30;;;10.10;;
2972;SDS011;1496;51.404;7.232;2023-08-20T03:47:08;14.77;;;11.47;;
2972;SDS011;1496;51.404;7.232;2023-08-20T03:49:34;15.30;;;11.00;;
2972;SDS011;1496;51.404;7.232;2023-08-20T03:52:00;13.90;;;12.40;;
2972;SDS011;1496;51.404;7.232;2023-08-20T03:54:28;19.17;;;12.37;;
2972;SDS011;1496;51.404;7.232;2023-08-20T03:56:55;17.03;;;13.97;;
2972;SDS011;1496;51.404;7.232;2023-08-20T03:59:22;19.87;;;13.23;;
2972;SDS011;1496;51.404;7.232;2023-08-20T04:01:48;17.30;;;12.47;;
2972;SDS011;1496;51.404;7.232;2023-08-20T04:04:14;16.33;;;13.00;;
2972;SDS011;1496;51.404;7.232;2023-08-20T04:06:40;17.50;;;12.30;;
2972;SDS011;1496;51.404;7.232;2023-08-20T04:09:06;19.60;;;12.93;;
2972;SDS011;1496;51.404;7.232;2023-08-20T04:11:34;16.63;;;12.60;;
2972;SDS011;1496;51.404;7.232;2023-08-20T04:14:00;17.50;;;12.23;;
2972;SDS011;1496;51.404;7.232;2023-08-20T04:16:26;17.00;;;13.50;;
2972;SDS011;1496;51.404;7.232;2023-08-20T04:18:51;16.93;;;13.53;;
2972;SDS011;1496;51.404;7.232;2023-08-20T04:21:20;17.67;;;13.03;;
2972;SDS011;1496;51.404;7.232;2023-08-20T04:23:45;16.87;;;13.80;;
2972;SDS011;1496;51.404;7.232;2023-08-20T04:26:11;18.77;;;13.83;;
2972;SDS011;1496;51.404;7.232;2023-08-20T04:28:37;15.77;;;12.37;;
2972;SDS011;1496;51.404;7.232;2023-08-20T04:31:03;15.40;;;11.60;;
2972;SDS011;1496;51.404;7.232;2023-08-20T04:33:44;13.90;;;12.20;;
2972;SDS011;1496;51.404;7.232;2023-08-20T04:36:11;14.63;;;12.40;;
2972;SDS011;1496;51.404;7.232;2023-08-20T04:38:37;15.03;;;11.97;;
2972;SDS011;1496;51.404;7.232;2023-08-20T04:41:03;16.43;;;12.17;;
2972;SDS011;1496;51.404;7.232;2023-08-20T04:43:30;14.83;;;12.33;;
2972;SDS011;1496;51.404;7.232;2023-08-20T04:45:57;20.03;;;13.10;;
2972;SDS011;1496;51.404;7.232;2023-08-20T04:48:23;18.47;;;13.67;;
2972;SDS011;1496;51.404;7.232;2023-08-20T04:50:48;15.83;;;12.50;;
2972;SDS011;1496;51.404;7.232;2023-08-20T04:53:14;16.03;;;12.90;;
2972;SDS011;1496;51.404;7.232;2023-08-20T04:55:41;21.50;;;12.50;;
2972;SDS011;1496;51.404;7.232;2023-08-20T04:58:07;14.53;;;12.10;;
2972;SDS011;1496;51.404;7.232;2023-08-20T05:00:34;17.50;;;13.50;;
2972;SDS011;1496;51.404;7.232;2023-08-20T05:03:05;18.00;;;14.23;;
2972;SDS011;1496;51.404;7.232;2023-08-20T05:05:32;18.10;;;13.57;;
2972;SDS011;1496;51.404;7.232;2023-08-20T05:07:58;22.30;;;14.73;;
2972;SDS011;1496;51.404;7.232;2023-08-20T05:10:23;14.00;;;12.47;;
2972;SDS011;1496;51.404;7.232;2023-08-20T05:12:49;15.50;;;12.10;;
2972;SDS011;1496;51.404;7.232;2023-08-20T05:15:15;17.20;;;11.80;;
2972;SDS011;1496;51.404;7.232;2023-08-20T05:17:41;17.47;;;12.53;;
2972;SDS011;1496;51.404;7.232;2023-08-20T05:20:06;21.43;;;12.07;;
2972;SDS011;1496;51.404;7.232;2023-08-20T05:22:34;16.47;;;11.77;;
2972;SDS011;1496;51.404;7.232;2023-08-20T05:24:59;17.57;;;13.53;;
2972;SDS011;1496;51.404;7.232;2023-08-20T05:27:26;18.97;;;14.60;;
2972;SDS011;1496;51.404;7.232;2023-08-20T05:29:52;21.47;;;15.13;;
2972;SDS011;1496;51.404;7.232;2023-08-20T05:32:19;19.70;;;15.17;;
2972;SDS011;1496;51.404;7.232;2023-08-20T05:34:45;20.83;;;16.40;;
2972;SDS011;1496;51.404;7.232;2023-08-20T05:37:11;23.93;;;15.73;;
2972;SDS011;1496;51.404;7.232;2023-08-20T05:39:41;21.23;;;15.60;;
2972;SDS011;1496;51.404;7.232;2023-08-20T05:42:08;23.00;;;17.80;;
2972;SDS011;1496;51.404;7.232;2023-08-20T05:44:34;24.03;;;15.77;;
2972;SDS011;1496;51.404;7.232;2023-08-20T05:47:01;19.77;;;14.80;;
2972;SDS011;1496;51.404;7.232;2023-08-20T05:49:27;21.87;;;15.73;;
2972;SDS011;1496;51.404;7.232;2023-08-20T05:51:53;21.33;;;16.30;;
2972;SDS011;1496;51.404;7.232;2023-08-20T05:54:19;20.10;;;15.40;;
2972;SDS011;1496;51.404;7.232;2023-08-20T05:56:44;21.10;;;16.50;;
2972;SDS011;1496;51.404;7.232;2023-08-20T05:59:10;21.30;;;15.60;;
2972;SDS011;1496;51.404;7.232;2023-08-20T06:01:36;18.40;;;15.00;;
2972;SDS011;1496;51.404;7.232;2023-08-20T06:04:01;23.07;;;16.57;;
2972;SDS011;1496;51.404;7.232;2023-08-20T06:06:27;19.60;;;14.50;;
2972;SDS011;1496;51.404;7.232;2023-08-20T06:08:53;18.60;;;14.40;;
2972;SDS011;1496;51.404;7.232;2023-08-20T06:11:19;20.60;;;14.50;;
2972;SDS011;1496;51.404;7.232;2023-08-20T06:13:45;16.87;;;13.67;;
2972;SDS011;1496;51.404;7.232;2023-08-20T06:16:11;17.13;;;14.23;;
2972;SDS011;1496;51.404;7.232;2023-08-20T06:18:40;21.53;;;14.93;;
2972;SDS011;1496;51.404;7.232;2023-08-20T06:21:06;16.60;;;14.43;;
2972;SDS011;1496;51.404;7.232;2023-08-20T06:23:32;19.70;;;15.47;;
2972;SDS011;1496;51.404;7.232;2023-08-20T06:25:57;20.33;;;13.87;;
2972;SDS011;1496;51.404;7.232;2023-08-20T06:28:23;17.20;;;13.93;;
2972;SDS011;1496;51.404;7.232;2023-08-20T06:30:49;16.00;;;13.63;;
2972;SDS011;1496;51.404;7.232;2023-08-20T06:33:14;17.03;;;13.27;;
2972;SDS011;1496;51.404;7.232;2023-08-20T06:35:40;14.97;;;13.00;;
2972;SDS011;1496;51.404;7.232;2023-08-20T06:38:06;15.23;;;12.50;;
2972;SDS011;1496;51.404;7.232;2023-08-20T06:40:32;14.60;;;12.57;;
2972;SDS011;1496;51.404;7.232;2023-08-20T06:42:58;18.50;;;12.13;;
2972;SDS011;1496;51.404;7.232;2023-08-20T06:45:24;16.30;;;12.13;;
2972;SDS011;1496;51.404;7.232;2023-08-20T06:47:50;15.50;;;12.00;;
2972;SDS011;1496;51.404;7.232;2023-08-20T06:50:15;19.37;;;12.53;;
2972;SDS011;1496;51.404;7.232;2023-08-20T06:52:43;16.20;;;12.33;;
2972;SDS011;1496;51.404;7.232;2023-08-20T06:55:09;16.23;;;11.40;;
2972;SDS011;1496;51.404;7.232;2023-08-20T06:57:35;12.57;;;10.70;;
2972;SDS011;1496;51.404;7.232;2023-08-20T07:00:00;16.97;;;11.67;;
2972;SDS011;1496;51.404;7.232;2023-08-20T07:02:26;15.70;;;11.53;;
2972;SDS011;1496;51.404;7.232;2023-08-20T07:04:52;14.90;;;12.50;;
2972;SDS011;1496;51.404;7.232;2023-08-20T07:07:17;21.23;;;12.73;;
2972;SDS011;1496;51.404;7.232;2023-08-20T07:09:43;14.20;;;11.30;;
2972;SDS011;1496;51.404;7.232;2023-08-20T07:12:08;16.47;;;13.20;;
2972;SDS011;1496;51.404;7.232;2023-08-20T07:14:34;14.53;;;12.73;;
2972;SDS011;1496;51.404;7.232;2023-08-20T07:17:00;15.10;;;12.87;;
2972;SDS011;1496;51.404;7.232;2023-08-20T07:19:27;19.07;;;14.63;;
2972;SDS011;1496;51.404;7.232;2023-08-20T07:21:53;17.73;;;13.77;;
2972;SDS011;1496;51.404;7.232;2023-08-20T07:24:20;16.07;;;13.90;;
2972;SDS011;1496;51.404;7.232;2023-08-20T07:26:51;17.27;;;13.90;;
2972;SDS011;1496;51.404;7.232;2023-08-20T07:29:17;16.70;;;13.10;;
2972;SDS011;1496;51.404;7.232;2023-08-20T07:31:43;19.77;;;12.23;;
2972;SDS011;1496;51.404;7.232;2023-08-20T07:34:08;16.93;;;12.10;;
2972;SDS011;1496;51.404;7.232;2023-08-20T07:36:34;14.73;;;11.00;;
2972;SDS011;1496;51.404;7.232;2023-08-20T07:39:00;15.27;;;11.33;;
2972;SDS011;1496;51.404;7.232;2023-08-20T07:41:26;14.90;;;11.40;;
2972;SDS011;1496;51.404;7.232;2023-08-20T07:43:52;15.93;;;10.67;;
2972;SDS011;1496;51.404;7.232;2023-08-20T07:46:18;21.17;;;12.80;;
2972;SDS011;1496;51.404;7.232;2023-08-20T07:48:44;17.00;;;11.37;;
2972;SDS011;1496;51.404;7.232;2023-08-20T07:51:10;19.23;;;11.83;;
2972;SDS011;1496;51.404;7.232;2023-08-20T07:53:35;14.73;;;12.60;;
2972;SDS011;1496;51.404;7.232;2023-08-20T07:56:01;13.53;;;10.53;;
2972;SDS011;1496;51.404;7.232;2023-08-20T07:58:27;16.33;;;10.50;;
2972;SDS011;1496;51.404;7.232;2023-08-20T08:00:53;10.80;;;9.53;;
2972;SDS011;1496;51.404;7.232;2023-08-20T08:03:19;14.53;;;10.57;;
2972;SDS011;1496;51.404;7.232;2023-08-20T08:05:48;14.77;;;11.13;;
2972;SDS011;1496;51.404;7.232;2023-08-20T08:08:17;16.23;;;11.70;;
2972;SDS011;1496;51.404;7.232;2023-08-20T08:10:44;20.47;;;11.50;;
2972;SDS011;1496;51.404;7.232;2023-08-20T08:13:11;15.03;;;11.30;;
2972;SDS011;1496;51.404;7.232;2023-08-20T08:15:37;14.80;;;11.07;;
2972;SDS011;1496;51.404;7.232;2023-08-20T08:18:04;17.03;;;12.77;;
2972;SDS011;1496;51.404;7.232;2023-08-20T08:20:29;15.40;;;12.30;;
2972;SDS011;1496;51.404;7.232;2023-08-20T08:22:55;15.80;;;12.43;;
2972;SDS011;1496;51.404;7.232;2023-08-20T08:25:21;15.00;;;10.87;;
2972;SDS011;1496;51.404;7.232;2023-08-20T08:27:47;13.20;;;9.60;;
2972;SDS011;1496;51.404;7.232;2023-08-20T08:30:13;10.80;;;9.27;;
2972;SDS011;1496;51.404;7.232;2023-08-20T08:32:40;9.07;;;7.03;;
2972;SDS011;1496;51.404;7.232;2023-08-20T08:35:06;9.60;;;7.87;;
2972;SDS011;1496;51.404;7.232;2023-08-20T08:37:32;12.03;;;9.50;;
2972;SDS011;1496;51.404;7.232;2023-08-20T08:39:57;9.57;;;7.00;;
2972;SDS011;1496;51.404;7.232;2023-08-20T08:42:23;10.20;;;7.53;;
2972;SDS011;1496;51.404;7.232;2023-08-20T08:44:49;7.87;;;6.57;;
2972;SDS011;1496;51.404;7.232;2023-08-20T08:47:15;6.10;;;5.60;;
2972;SDS011;1496;51.404;7.232;2023-08-20T08:49:41;8.03;;;5.60;;
2972;SDS011;1496;51.404;7.232;2023-08-20T08:52:08;7.03;;;6.33;;
2972;SDS011;1496;51.404;7.232;2023-08-20T08:54:36;8.20;;;7.40;;
2972;SDS011;1496;51.404;7.232;2023-08-20T08:57:02;8.10;;;5.40;;
2972;SDS011;1496;51.404;7.232;2023-08-20T08:59:28;8.83;;;6.03;;
2972;SDS011;1496;51.404;7.232;2023-08-20T09:01:53;9.13;;;5.07;;
2972;SDS011;1496;51.404;7.232;2023-08-20T09:04:21;9.97;;;6.73;;
2972;SDS011;1496;51.404;7.232;2023-08-20T09:06:48;7.10;;;6.40;;
2972;SDS011;1496;51.404;7.232;2023-08-20T09:09:14;7.03;;;6.33;;
2972;SDS011;1496;51.404;7.232;2023-08-20T09:11:41;8.50;;;5.83;;
2972;SDS011;1496;51.404;7.232;2023-08-20T09:16:58;8.30;;;6.77;;
2972;SDS011;1496;51.404;7.232;2023-08-20T09:19:29;7.90;;;6.60;;
2972;SDS011;1496;51.404;7.232;2023-08-20T09:21:56;7.90;;;6.70;;
2972;SDS011;1496;51.404;7.232;2023-08-20T09:25:06;7.63;;;5.70;;
2972;SDS011;1496;51.404;7.232;2023-08-20T09:27:22;6.37;;;5.70;;
2972;SDS011;1496;51.404;7.232;2023-08-20T09:29:49;7.90;;;6.77;;
2972;SDS011;1496;51.404;7.232;2023-08-20T09:32:20;6.37;;;4.97;;
2972;SDS011;1496;51.404;7.232;2023-08-20T09:34:47;10.43;;;6.00;;
2972;SDS011;1496;51.404;7.232;2023-08-20T09:37:18;6.33;;;5.70;;
2972;SDS011;1496;51.404;7.232;2023-08-20T09:39:44;6.20;;;5.40;;
2972;SDS011;1496;51.404;7.232;2023-08-20T09:42:10;6.80;;;5.07;;
2972;SDS011;1496;51.404;7.232;2023-08-20T09:44:37;6.23;;;5.00;;
2972;SDS011;1496;51.404;7.232;2023-08-20T09:47:08;6.37;;;5.53;;
2972;SDS011;1496;51.404;7.232;2023-08-20T09:49:39;6.20;;;5.50;;
2972;SDS011;1496;51.404;7.232;2023-08-20T09:52:09;7.63;;;5.53;;
2972;SDS011;1496;51.404;7.232;2023-08-20T09:54:39;8.10;;;6.03;;
2972;SDS011;1496;51.404;7.232;2023-08-20T09:57:20;6.10;;;5.50;;
2972;SDS011;1496;51.404;7.232;2023-08-20T09:59:54;5.83;;;5.23;;
2972;SDS011;1496;51.404;7.232;2023-08-20T10:02:20;5.30;;;4.80;;
2972;SDS011;1496;51.404;7.232;2023-08-20T10:04:46;11.03;;;6.00;;
2972;SDS011;1496;51.404;7.232;2023-08-20T10:07:14;6.67;;;6.07;;
2972;SDS011;1496;51.404;7.232;2023-08-20T10:09:39;6.37;;;5.67;;
2972;SDS011;1496;51.404;7.232;2023-08-20T10:12:07;8.47;;;6.30;;
2972;SDS011;1496;51.404;7.232;2023-08-20T10:14:33;7.90;;;6.23;;
2972;SDS011;1496;51.404;7.232;2023-08-20T10:16:59;8.37;;;6.50;;
2972;SDS011;1496;51.404;7.232;2023-08-20T10:19:30;7.27;;;6.57;;
2972;SDS011;1496;51.404;7.232;2023-08-20T10:21:56;8.07;;;6.07;;
2972;SDS011;1496;51.404;7.232;2023-08-20T10:24:23;7.70;;;6.27;;
2972;SDS011;1496;51.404;7.232;2023-08-20T10:26:51;7.23;;;6.47;;
2972;SDS011;1496;51.404;7.232;2023-08-20T10:29:40;7.00;;;6.30;;
2972;SDS011;1496;51.404;7.232;2023-08-20T10:32:10;8.20;;;7.40;;
2972;SDS011;1496;51.404;7.232;2023-08-20T10:34:37;8.63;;;6.70;;
2972;SDS011;1496;51.404;7.232;2023-08-20T10:37:13;8.13;;;6.40;;
2972;SDS011;1496;51.404;7.232;2023-08-20T10:39:39;10.60;;;6.30;;
2972;SDS011;1496;51.404;7.232;2023-08-20T10:47:36;7.63;;;6.40;;
2972;SDS011;1496;51.404;7.232;2023-08-20T10:50:04;8.17;;;7.33;;
2972;SDS011;1496;51.404;7.232;2023-08-20T10:52:31;12.93;;;6.40;;
2972;SDS011;1496;51.404;7.232;2023-08-20T10:54:57;7.77;;;6.67;;
2972;SDS011;1496;51.404;7.232;2023-08-20T10:57:27;8.30;;;6.80;;
2972;SDS011;1496;51.404;7.232;2023-08-20T10:59:58;7.07;;;6.37;;
2972;SDS011;1496;51.404;7.232;2023-08-20T11:02:26;6.53;;;5.93;;
2972;SDS011;1496;51.404;7.232;2023-08-20T11:04:56;7.30;;;6.57;;
2972;SDS011;1496;51.404;7.232;2023-08-20T11:07:23;33.13;;;22.47;;
2972;SDS011;1496;51.404;7.232;2023-08-20T11:09:52;7.70;;;6.90;;
2972;SDS011;1496;51.404;7.232;2023-08-20T11:12:19;8.77;;;7.07;;
2972;SDS011;1496;51.404;7.232;2023-08-20T11:14:46;9.10;;;6.00;;
2972;SDS011;1496;51.404;7.232;2023-08-20T11:17:12;6.87;;;6.17;;
2972;SDS011;1496;51.404;7.232;2023-08-20T11:19:38;6.87;;;6.17;;
2972;SDS011;1496;51.404;7.232;2023-08-20T11:22:04;7.40;;;6.63;;
2972;SDS011;1496;51.404;7.232;2023-08-20T11:24:30;7.53;;;6.70;;
2972;SDS011;1496;51.404;7.232;2023-08-20T11:26:56;8.13;;;7.20;;
2972;SDS011;1496;51.404;7.232;2023-08-20T11:29:22;8.77;;;7.87;;
2972;SDS011;1496;51.404;7.232;2023-08-20T11:31:50;8.37;;;7.57;;
2972;SDS011;1496;51.404;7.232;2023-08-20T11:34:16;8.10;;;7.20;;
2972;SDS011;1496;51.404;7.232;2023-08-20T11:36:43;8.57;;;7.73;;
2972;SDS011;1496;51.404;7.232;2023-08-20T11:39:09;8.47;;;7.20;;
2972;SDS011;1496;51.404;7.232;2023-08-20T11:41:36;7.70;;;6.80;;
2972;SDS011;1496;51.404;7.232;2023-08-20T11:44:02;8.87;;;7.47;;
2972;SDS011;1496;51.404;7.232;2023-08-20T11:46:29;13.27;;;9.70;;
2972;SDS011;1496;51.404;7.232;2023-08-20T11:49:07;10.53;;;9.40;;
2972;SDS011;1496;51.404;7.232;2023-08-20T11:54:06;12.33;;;11.10;;
2972;SDS011;1496;51.404;7.232;2023-08-20T11:56:33;11.00;;;9.83;;
2972;SDS011;1496;51.404;7.232;2023-08-20T11:58:59;11.80;;;9.80;;
2972;SDS011;1496;51.404;7.232;2023-08-20T12:01:33;10.73;;;9.67;;
2972;SDS011;1496;51.404;7.232;2023-08-20T12:04:06;11.07;;;9.33;;
2972;SDS011;1496;51.404;7.232;2023-08-20T12:06:34;16.90;;;15.20;;
2972;SDS011;1496;51.404;7.232;2023-08-20T12:09:01;15.37;;;13.07;;
2972;SDS011;1496;51.404;7.232;2023-08-20T12:11:47;15.60;;;14.00;;
2972;SDS011;1496;51.404;7.232;2023-08-20T12:14:17;15.47;;;13.97;;
2972;SDS011;1496;51.404;7.232;2023-08-20T12:16:43;15.03;;;13.40;;
2972;SDS011;1496;51.404;7.232;2023-08-20T12:19:09;14.37;;;12.93;;
2972;SDS011;1496;51.404;7.232;2023-08-20T12:21:35;16.00;;;14.30;;
2972;SDS011;1496;51.404;7.232;2023-08-20T12:24:00;17.07;;;13.70;;
2972;SDS011;1496;51.404;7.232;2023-08-20T12:26:26;15.80;;;14.30;;
2972;SDS011;1496;51.404;7.232;2023-08-20T12:28:52;14.10;;;12.73;;
2972;SDS011;1496;51.404;7.232;2023-08-20T12:31:17;14.80;;;13.40;;
2972;SDS011;1496;51.404;7.232;2023-08-20T12:33:43;16.90;;;15.40;;
2972;SDS011;1496;51.404;7.232;2023-08-20T12:36:09;16.03;;;13.50;;
2972;SDS011;1496;51.404;7.232;2023-08-20T12:38:34;15.53;;;14.13;;
2972;SDS011;1496;51.404;7.232;2023-08-20T12:41:01;16.60;;;15.00;;
2972;SDS011;1496;51.404;7.232;2023-08-20T12:43:27;22.93;;;16.83;;
2972;SDS011;1496;51.404;7.232;2023-08-20T12:45:52;18.03;;;16.27;;
2972;SDS011;1496;51.404;7.232;2023-08-20T12:48:18;17.03;;;15.33;;
2972;SDS011;1496;51.404;7.232;2023-08-20T12:50:43;19.20;;;16.03;;
2972;SDS011;1496;51.404;7.232;2023-08-20T12:53:09;16.77;;;15.07;;
2972;SDS011;1496;51.404;7.232;2023-08-20T12:55:34;17.80;;;16.10;;
2972;SDS011;1496;51.404;7.232;2023-08-20T12:58:00;15.70;;;14.17;;
2972;SDS011;1496;51.404;7.232;2023-08-20T13:00:26;15.80;;;14.10;;
2972;SDS011;1496;51.404;7.232;2023-08-20T13:02:55;17.67;;;15.90;;
2972;SDS011;1496;51.404;7.232;2023-08-20T13:05:27;16.00;;;14.40;;
2972;SDS011;1496;51.404;7.232;2023-08-20T13:07:53;16.80;;;15.03;;
2972;SDS011;1496;51.404;7.232;2023-08-20T13:10:19;16.60;;;15.20;;
2972;SDS011;1496;51.404;7.232;2023-08-20T13:12:49;15.93;;;14.60;;
2972;SDS011;1496;51.404;7.232;2023-08-20T13:15:17;16.10;;;14.33;;
2972;SDS011;1496;51.404;7.232;2023-08-20T13:17:45;15.10;;;13.70;;
2972;SDS011;1496;51.404;7.232;2023-08-20T13:20:11;14.40;;;12.93;;
2972;SDS011;1496;51.404;7.232;2023-08-20T13:22:37;13.10;;;11.80;;
2972;SDS011;1496;51.404;7.232;2023-08-20T13:25:02;14.70;;;13.17;;
2972;SDS011;1496;51.404;7.232;2023-08-20T13:27:29;16.27;;;12.00;;
2972;SDS011;1496;51.404;7.232;2023-08-20T13:29:56;13.53;;;12.30;;
2972;SDS011;1496;51.404;7.232;2023-08-20T13:32:22;12.57;;;11.27;;
2972;SDS011;1496;51.404;7.232;2023-08-20T13:34:48;14.47;;;12.40;;
2972;SDS011;1496;51.404;7.232;2023-08-20T13:37:14;13.67;;;12.27;;
2972;SDS011;1496;51.404;7.232;2023-08-20T13:39:40;14.67;;;12.83;;
2972;SDS011;1496;51.404;7.232;2023-08-20T13:42:05;14.60;;;12.97;;
2972;SDS011;1496;51.404;7.232;2023-08-20T13:44:31;13.87;;;12.23;;
2972;SDS011;1496;51.404;7.232;2023-08-20T13:46:59;16.30;;;12.83;;
2972;SDS011;1496;51.404;7.232;2023-08-20T13:49:25;13.33;;;12.17;;
2972;SDS011;1496;51.404;7.232;2023-08-20T13:51:51;18.73;;;13.33;;
2972;SDS011;1496;51.404;7.232;2023-08-20T13:54:17;13.57;;;12.20;;
2972;SDS011;1496;51.404;7.232;2023-08-20T13:56:42;13.60;;;12.30;;
2972;SDS011;1496;51.404;7.232;2023-08-20T13:59:09;12.87;;;11.57;;
2972;SDS011;1496;51.404;7.232;2023-08-20T14:01:35;13.30;;;12.00;;
2972;SDS011;1496;51.404;7.232;2023-08-20T14:04:01;12.67;;;11.23;;
2972;SDS011;1496;51.404;7.232;2023-08-20T14:06:27;13.80;;;12.40;;
2972;SDS011;1496;51.404;7.232;2023-08-20T14:08:53;14.07;;;11.67;;
2972;SDS011;1496;51.404;7.232;2023-08-20T14:11:19;12.23;;;11.03;;
2972;SDS011;1496;51.404;7.232;2023-08-20T14:13:45;12.17;;;10.60;;
2972;SDS011;1496;51.404;7.232;2023-08-20T14:16:12;11.90;;;10.90;;
2972;SDS011;1496;51.404;7.232;2023-08-20T14:18:40;11.40;;;10.33;;
2972;SDS011;1496;51.404;7.232;2023-08-20T14:21:06;11.57;;;10.30;;
2972;SDS011;1496;51.404;7.232;2023-08-20T14:23:32;13.80;;;11.87;;
2972;SDS011;1496;51.404;7.232;2023-08-20T14:25:57;14.23;;;11.50;;
2972;SDS011;1496;51.404;7.232;2023-08-20T14:28:23;11.23;;;9.93;;
2972;SDS011;1496;51.404;7.232;2023-08-20T14:30:51;11.73;;;10.67;;
2972;SDS011;1496;51.404;7.232;2023-08-20T14:33:19;12.60;;;9.83;;
2972;SDS011;1496;51.404;7.232;2023-08-20T14:35:45;11.17;;;10.13;;
2972;SDS011;1496;51.404;7.232;2023-08-20T14:38:11;9.67;;;8.87;;
2972;SDS011;1496;51.404;7.232;2023-08-20T14:40:38;10.53;;;9.60;;
2972;SDS011;1496;51.404;7.232;2023-08-20T14:43:07;12.43;;;9.83;;
2972;SDS011;1496;51.404;7.232;2023-08-20T14:45:33;10.17;;;9.17;;
2972;SDS011;1496;51.404;7.232;2023-08-20T14:47:59;9.83;;;9.03;;
2972;SDS011;1496;51.404;7.232;2023-08-20T14:50:25;11.07;;;9.93;;
2972;SDS011;1496;51.404;7.232;2023-08-20T14:52:51;10.73;;;9.63;;
2972;SDS011;1496;51.404;7.232;2023-08-20T14:55:19;10.07;;;9.17;;
2972;SDS011;1496;51.404;7.232;2023-08-20T14:57:45;10.63;;;9.67;;
2972;SDS011;1496;51.404;7.232;2023-08-20T15:00:11;10.63;;;9.53;;
2972;SDS011;1496;51.404;7.232;2023-08-20T15:02:45;12.70;;;9.93;;
2972;SDS011;1496;51.404;7.232;2023-08-20T15:05:11;10.10;;;9.10;;
2972;SDS011;1496;51.404;7.232;2023-08-20T15:07:43;10.10;;;9.17;;
2972;SDS011;1496;51.404;7.232;2023-08-20T15:10:09;11.17;;;9.97;;
2972;SDS011;1496;51.404;7.232;2023-08-20T15:12:35;9.83;;;8.97;;
2972;SDS011;1496;51.404;7.232;2023-08-20T15:15:03;9.30;;;8.40;;